Decoded Metar for LFOP (ROUEN in FRANCE) (IATA:URO) | Meteo·Mobile Aviation Weather
aviador You're here:

LFOP Decoded Metar

ROUEN in FRANCE
Report Time2020-02-23 11:00:00
UTC Time2020-02-23 11:29:29
Flight Rules mvfr MVFR
Wind250° at 19 kt
W.Decomp.*RWY 23: 17.9 kt HW 6.5 kt RCW
RWY 22: 16.5 kt HW 9.5 kt RCW
Visibility9999 m
Phenomena:N/A
Clouds:Overcast 003 Hf
Overcast 012 Hf
Expected CloudBase > 800 ft AGL from Temp-Dew spread
Ceiling1,200 ft
Temp12°C (ISA -2)
Dew Point10°C (88% RH)
AAT5.2°C
QNH1022 hPa
Density Alt144 ft
Elevation515 ft
Report Wrong Elevation
Raw Report
METAR LFOP 231100Z AUTO 25019KT 9999 OVC012 12/10 Q1022 TEMPO 2000
RADZ OVC003 BECMG 23017G27KT=

Extra information for LFOP:More info

Metar Taf Metar & Taf Last 4 Metars F.Rules Stats Wind Profile Meteogram Temp Stats Airport Information Weather charts Add Link Nearby VenuesMetar ALERT Operation Metar Decoded Social comments